Time;durP1;ratioP1;P1;durP2;ratioP2;P2;SDS_P1;SDS_P2;PMS_P1;PMS_P2;Temp;Humidity;BMP_temperature;BMP_pressure;BME280_temperature;BME280_humidity;BME280_pressure;Samples;Min_cycle;Max_cycle;Signal;HPM_P1;HPM_P2
2023/05/10 04:24:19;;;;;;;13.15;6.13;;;;;;;12.82;100.00;101041.75;4989293;28;127026;-28
2023/05/10 04:26:45;;;;;;;10.93;6.45;;;;;;;12.81;100.00;101041.88;4991211;28;100840;-31
2023/05/10 04:29:10;;;;;;;12.40;6.28;;;;;;;12.82;100.00;101054.50;4992594;28;96610;-30
2023/05/10 04:31:36;;;;;;;11.45;6.13;;;;;;;12.78;100.00;101055.69;4992566;28;97368;-30
2023/05/10 04:34:01;;;;;;;10.48;6.43;;;;;;;12.78;100.00;101058.41;4992880;28;97407;-29
2023/05/10 04:36:27;;;;;;;12.60;6.88;;;;;;;12.78;100.00;101064.72;4992294;28;99839;-29
2023/05/10 04:38:53;;;;;;;15.38;7.25;;;;;;;12.77;100.00;101062.09;4991299;28;96776;-30
2023/05/10 04:41:18;;;;;;;10.98;5.70;;;;;;;12.74;100.00;101057.72;4992679;28;96927;-30
2023/05/10 04:43:43;;;;;;;12.20;5.15;;;;;;;12.72;100.00;101056.97;4992461;28;98070;-30
2023/05/10 04:46:09;;;;;;;10.07;4.97;;;;;;;12.72;100.00;101068.69;4990748;28;100945;-29
2023/05/10 04:48:34;;;;;;;15.40;5.70;;;;;;;12.70;100.00;101069.78;4991849;28;96516;-30
2023/05/10 04:50:59;;;;;;;9.82;5.53;;;;;;;12.65;100.00;101070.09;4992521;28;97134;-30
2023/05/10 04:53:25;;;;;;;11.57;4.53;;;;;;;12.64;100.00;101072.94;4992049;28;99811;-29
2023/05/10 04:55:50;;;;;;;13.32;5.25;;;;;;;12.65;100.00;101075.53;4992285;28;98068;-28
2023/05/10 04:58:15;;;;;;;8.40;4.90;;;;;;;12.65;100.00;101080.09;4992357;28;96494;-29
2023/05/10 05:00:41;;;;;;;11.80;5.15;;;;;;;12.63;100.00;101074.78;4990891;28;96973;-29
2023/05/10 05:03:06;;;;;;;10.73;5.35;;;;;;;12.67;100.00;101087.16;4991637;28;98115;-29
2023/05/10 05:05:32;;;;;;;12.80;5.97;;;;;;;12.67;100.00;101087.16;4991905;28;112416;-29
2023/05/10 05:07:57;;;;;;;12.43;4.55;;;;;;;12.64;100.00;101090.09;4992483;28;96529;-29
2023/05/10 05:10:22;;;;;;;14.75;5.55;;;;;;;12.61;100.00;101095.75;4991929;28;101370;-29
2023/05/10 05:12:48;;;;;;;7.10;3.80;;;;;;;12.55;100.00;101090.69;4991634;28;97443;-29
2023/05/10 05:15:15;;;;;;;13.35;4.32;;;;;;;12.54;100.00;101088.97;4991895;28;97968;-30
2023/05/10 05:17:40;;;;;;;7.22;3.78;;;;;;;12.54;100.00;101099.84;4990689;28;96705;-30
2023/05/10 05:20:06;;;;;;;7.70;3.25;;;;;;;12.54;100.00;101105.28;4992071;28;96795;-31
2023/05/10 05:22:31;;;;;;;7.13;3.67;;;;;;;12.57;100.00;101102.34;4990597;28;100933;-29
2023/05/10 05:24:58;;;;;;;9.60;3.30;;;;;;;12.52;100.00;101108.09;4991586;28;97318;-29
2023/05/10 05:27:25;;;;;;;7.38;3.88;;;;;;;12.50;100.00;101109.16;4990704;28;96532;-29
2023/05/10 05:29:53;;;;;;;6.60;3.15;;;;;;;12.44;100.00;101121.31;4990906;28;96567;-29
2023/05/10 05:32:19;;;;;;;8.13;3.45;;;;;;;12.45;100.00;101130.31;4990005;28;100869;-30
2023/05/10 05:34:45;;;;;;;5.00;2.60;;;;;;;12.43;100.00;101124.97;4991590;28;99317;-29
2023/05/10 05:37:18;;;;;;;7.28;3.30;;;;;;;12.41;100.00;101115.19;4991473;28;96833;-29
2023/05/10 05:39:44;;;;;;;8.90;2.60;;;;;;;12.41;100.00;101126.06;4994007;28;96824;-30
2023/05/10 05:42:10;;;;;;;5.93;2.45;;;;;;;12.42;100.00;101127.78;4993689;28;100067;-29
2023/05/10 05:44:35;;;;;;;4.97;2.70;;;;;;;12.40;100.00;101127.03;4993569;28;99500;-31
2023/05/10 05:47:01;;;;;;;5.05;2.80;;;;;;;12.42;100.00;101122.34;4995404;28;96619;-29
2023/05/10 05:49:26;;;;;;;5.50;2.35;;;;;;;12.43;100.00;101124.97;4995707;28;96888;-29
2023/05/10 05:51:51;;;;;;;5.43;2.63;;;;;;;12.42;100.00;101123.25;4994877;28;106712;-29
2023/05/10 05:54:17;;;;;;;7.25;2.90;;;;;;;12.45;100.00;101135.75;4995449;28;97761;-30
2023/05/10 05:56:43;;;;;;;4.70;2.60;;;;;;;12.45;100.00;101133.91;4995046;28;100398;-29
2023/05/10 05:59:09;;;;;;;9.02;3.13;;;;;;;12.46;100.00;101132.91;4993607;28;96891;-29
2023/05/10 06:01:34;;;;;;;5.88;2.63;;;;;;;12.48;100.00;101139.13;4994160;28;98221;-29
2023/05/10 06:03:59;;;;;;;6.40;2.17;;;;;;;12.50;100.00;101137.19;4995014;28;97757;-31
2023/05/10 06:06:25;;;;;;;3.75;1.98;;;;;;;12.49;100.00;101129.16;4994409;28;106841;-29
2023/05/10 06:08:51;;;;;;;4.57;2.47;;;;;;;12.54;100.00;101136.03;4994512;28;102151;-31
2023/05/10 06:11:16;;;;;;;4.55;2.17;;;;;;;12.54;100.00;101136.03;4993376;28;100856;-29
2023/05/10 06:13:42;;;;;;;5.00;2.63;;;;;;;12.60;100.00;101140.19;4994663;28;97621;-29
2023/05/10 06:16:07;;;;;;;4.93;2.75;;;;;;;12.57;100.00;101140.38;4994639;28;96528;-29
2023/05/10 06:18:32;;;;;;;7.95;3.05;;;;;;;12.61;100.00;101136.50;4995604;28;96898;-28
2023/05/10 06:20:58;;;;;;;5.40;2.45;;;;;;;12.66;100.00;101144.38;4994597;28;97546;-29
2023/05/10 06:23:25;;;;;;;4.85;2.97;;;;;;;12.68;100.00;101146.00;4993922;28;103414;-29
2023/05/10 06:25:51;;;;;;;5.28;2.47;;;;;;;12.72;100.00;101149.38;4992838;28;96997;-30
2023/05/10 06:28:16;;;;;;;7.50;3.20;;;;;;;12.77;100.00;101143.63;4993388;28;96753;-29
2023/05/10 06:30:41;;;;;;;6.13;3.25;;;;;;;12.77;100.00;101146.34;4994492;28;97907;-29
2023/05/10 06:33:07;;;;;;;7.63;3.13;;;;;;;12.79;100.00;101156.16;4994063;28;112283;-29
2023/05/10 06:35:33;;;;;;;4.30;2.60;;;;;;;12.83;100.00;101149.56;4994532;28;97128;-29
2023/05/10 06:37:58;;;;;;;5.15;2.97;;;;;;;12.88;100.00;101146.53;4994658;28;96806;-28
2023/05/10 06:40:24;;;;;;;6.07;2.85;;;;;;;12.92;100.00;101142.63;4994505;28;97979;-28
2023/05/10 06:42:49;;;;;;;8.90;3.10;;;;;;;12.99;100.00;101146.69;4994673;28;97295;-31
2023/05/10 06:45:15;;;;;;;7.45;2.58;;;;;;;13.02;100.00;101143.75;4994365;28;96738;-29
2023/05/10 06:47:41;;;;;;;6.10;2.67;;;;;;;13.06;100.00;101150.75;4994003;28;96585;-30
2023/05/10 06:50:11;;;;;;;4.70;2.47;;;;;;;13.10;100.00;101154.13;4992232;28;101101;-29
2023/05/10 06:52:36;;;;;;;7.97;2.50;;;;;;;13.11;100.00;101156.75;4994075;28;97829;-30
2023/05/10 06:55:03;;;;;;;4.07;2.15;;;;;;;13.12;100.00;101155.75;4994121;28;96749;-30
2023/05/10 06:57:28;;;;;;;6.13;2.67;;;;;;;13.12;100.00;101155.75;4993971;28;96912;-29
2023/05/10 06:59:55;;;;;;;4.00;2.13;;;;;;;13.09;100.00;101150.53;4993580;28;115539;-29
2023/05/10 07:02:20;;;;;;;3.92;2.30;;;;;;;13.12;100.00;101161.19;4993610;28;97768;-29
2023/05/10 07:04:47;;;;;;;3.55;1.85;;;;;;;13.15;100.00;101168.28;4993997;28;96841;-28
2023/05/10 07:07:13;;;;;;;3.72;2.13;;;;;;;13.12;100.00;101160.31;4993071;28;97334;-29
2023/05/10 07:09:38;;;;;;;3.10;2.15;;;;;;;13.14;100.00;101163.81;4993625;28;99372;-31
2023/05/10 07:12:04;;;;;;;4.35;2.50;;;;;;;13.16;100.00;101176.34;4994125;28;97207;-29
2023/05/10 07:14:29;;;;;;;6.40;1.83;;;;;;;13.14;100.00;101164.69;4993755;28;96705;-29
2023/05/10 07:16:55;;;;;;;5.43;2.08;;;;;;;13.19;100.00;101169.81;4994140;28;96778;-29
2023/05/10 07:19:20;;;;;;;4.03;1.92;;;;;;;13.20;100.00;101177.00;4993630;28;98396;-29
2023/05/10 07:21:45;;;;;;;3.72;1.95;;;;;;;13.21;100.00;101177.88;4993675;28;97964;-29
2023/05/10 07:24:11;;;;;;;3.53;2.03;;;;;;;13.20;100.00;101173.41;4993168;28;96792;-29
2023/05/10 07:26:36;;;;;;;5.72;2.42;;;;;;;13.23;100.00;101178.63;4993572;28;96831;-29
2023/05/10 07:29:02;;;;;;;3.92;2.20;;;;;;;13.26;100.00;101178.44;4993621;28;98443;-29
2023/05/10 07:31:27;;;;;;;2.88;1.80;;;;;;;13.27;100.00;101178.34;4993808;28;97739;-29
2023/05/10 07:33:53;;;;;;;4.43;2.17;;;;;;;13.31;100.00;101185.34;4993442;28;96566;-30
2023/05/10 07:36:18;;;;;;;3.30;1.77;;;;;;;13.32;100.00;101187.09;4993682;28;96807;-29
2023/05/10 07:38:43;;;;;;;3.08;1.75;;;;;;;13.34;100.00;101181.53;4992789;28;99128;-29
2023/05/10 07:41:11;;;;;;;3.10;1.45;;;;;;;13.39;100.00;101184.81;4992938;28;99068;-28
2023/05/10 07:43:36;;;;;;;3.55;1.73;;;;;;;13.37;99.89;101184.94;4992033;28;96637;-30
2023/05/10 07:46:01;;;;;;;2.85;1.63;;;;;;;13.39;99.97;101176.66;4993034;28;113271;-29
2023/05/10 07:48:27;;;;;;;2.78;1.55;;;;;;;13.41;100.00;101185.59;4993294;28;97933;-29
2023/05/10 07:50:52;;;;;;;2.85;1.30;;;;;;;13.42;100.00;101190.06;4993046;28;99432;-29
2023/05/10 07:53:18;;;;;;;2.17;1.23;;;;;;;13.41;99.96;101182.00;4992859;28;108966;-29
2023/05/10 07:55:44;;;;;;;2.33;1.52;;;;;;;13.40;99.95;101185.72;4993527;28;96799;-29
2023/05/10 07:58:09;;;;;;;2.78;1.50;;;;;;;13.40;99.94;101193.88;4993138;28;97873;-30
2023/05/10 08:00:34;;;;;;;3.17;1.70;;;;;;;13.37;99.61;101186.75;4992061;28;112055;-29
2023/05/10 08:03:00;;;;;;;3.38;1.70;;;;;;;13.38;100.00;101194.81;4992722;28;96641;-29
2023/05/10 08:05:25;;;;;;;3.53;1.75;;;;;;;13.41;99.52;101193.75;4993152;28;96867;-29
2023/05/10 08:07:50;;;;;;;2.90;1.63;;;;;;;13.43;99.72;101199.09;4993145;28;98016;-28
2023/05/10 08:10:16;;;;;;;3.08;1.60;;;;;;;13.44;99.99;101209.84;4992440;28;99575;-29
2023/05/10 08:12:42;;;;;;;1.95;1.33;;;;;;;13.46;99.86;101207.91;4993060;28;96566;-29
2023/05/10 08:15:08;;;;;;;2.50;1.55;;;;;;;13.46;99.50;101210.63;4993219;28;96698;-29
2023/05/10 08:17:34;;;;;;;2.35;1.40;;;;;;;13.48;99.69;101210.53;4991436;28;101008;-30
2023/05/10 08:19:59;;;;;;;2.80;1.77;;;;;;;13.48;99.44;101211.41;4993022;28;99160;-29
2023/05/10 08:22:25;;;;;;;3.28;1.60;;;;;;;13.53;99.92;101217.41;4992863;28;96565;-30
2023/05/10 08:24:50;;;;;;;4.05;2.10;;;;;;;13.52;99.74;101220.25;4990145;28;110450;-29
2023/05/10 08:27:15;;;;;;;4.20;2.70;;;;;;;13.51;99.70;101222.06;4992256;28;97841;-29
2023/05/10 08:29:40;;;;;;;6.28;2.90;;;;;;;13.46;99.79;101218.78;4992890;28;97933;-29
2023/05/10 08:32:06;;;;;;;6.05;3.15;;;;;;;13.46;100.00;101223.38;4992610;28;97155;-29
2023/05/10 08:34:31;;;;;;;4.72;2.92;;;;;;;13.48;100.00;101221.44;4992642;28;96525;-29
2023/05/10 08:36:57;;;;;;;4.85;2.97;;;;;;;13.44;99.84;101220.75;4992668;28;97443;-29
2023/05/10 08:39:23;;;;;;;4.63;3.05;;;;;;;13.47;99.93;101228.72;4992217;28;99492;-28
2023/05/10 08:41:51;;;;;;;6.55;3.38;;;;;;;13.50;100.00;101233.09;4992414;28;96652;-28
2023/05/10 08:44:18;;;;;;;4.88;2.72;;;;;;;13.49;100.00;101223.16;4991536;28;96843;-29
2023/05/10 08:46:46;;;;;;;4.90;2.85;;;;;;;13.46;99.90;101223.38;4991090;28;100891;-29
2023/05/10 08:49:18;;;;;;;4.75;3.17;;;;;;;13.44;99.96;101230.75;4990913;28;101571;-29
2023/05/10 08:51:49;;;;;;;5.28;3.05;;;;;;;13.45;100.00;101238.84;4990673;28;97270;-30
2023/05/10 08:54:15;;;;;;;5.72;3.38;;;;;;;13.45;100.00;101235.25;4991183;28;96816;-31
2023/05/10 08:56:41;;;;;;;4.88;3.38;;;;;;;13.40;100.00;101245.56;4992307;28;98114;-29
2023/05/10 08:59:06;;;;;;;6.55;3.25;;;;;;;13.38;100.00;101251.09;4992238;28;97343;-31
2023/05/10 09:01:33;;;;;;;4.80;2.88;;;;;;;13.36;100.00;101245.75;4992203;28;96520;-29
2023/05/10 09:03:59;;;;;;;4.18;2.60;;;;;;;13.37;100.00;101250.25;4990665;28;97079;-29
2023/05/10 09:06:24;;;;;;;3.78;2.42;;;;;;;13.39;100.00;101255.56;4992246;28;97452;-29
2023/05/10 09:08:50;;;;;;;8.25;2.80;;;;;;;13.47;100.00;101258.66;4992280;28;99267;-31
2023/05/10 09:11:16;;;;;;;3.10;2.25;;;;;;;13.50;100.00;101253.00;4992085;28;96720;-29
2023/05/10 09:13:41;;;;;;;3.38;2.15;;;;;;;13.51;100.00;101262.03;4992274;28;96894;-28
2023/05/10 09:16:07;;;;;;;2.75;1.77;;;;;;;13.47;100.00;101263.22;4991534;28;97529;-30
2023/05/10 09:18:32;;;;;;;3.58;2.03;;;;;;;13.50;100.00;101265.75;4991780;28;99364;-29
2023/05/10 09:20:57;;;;;;;4.28;1.80;;;;;;;13.51;100.00;101272.91;4991784;28;96654;-30
2023/05/10 09:23:28;;;;;;;5.07;1.88;;;;;;;13.48;100.00;101276.72;4991901;28;99657;-29
2023/05/10 09:26:04;;;;;;;4.05;2.13;;;;;;;13.44;100.00;101269.72;4990529;28;100971;-29
2023/05/10 09:28:52;;;;;;;2.85;1.83;;;;;;;13.41;100.00;101279.97;4990335;28;101117;-31
2023/05/10 09:31:18;;;;;;;3.20;1.73;;;;;;;13.40;100.00;101267.34;4990322;28;96765;-29
2023/05/10 09:33:45;;;;;;;3.92;2.25;;;;;;;13.41;100.00;101267.22;4991990;28;96562;-29
2023/05/10 09:36:11;;;;;;;3.63;1.83;;;;;;;13.41;100.00;101277.25;4990196;28;101411;-28
2023/05/10 09:38:52;;;;;;;5.05;2.30;;;;;;;13.44;100.00;101280.63;4991587;28;99123;-29
2023/05/10 09:41:24;;;;;;;3.15;1.80;;;;;;;13.46;100.00;101284.09;4991179;28;96746;-29
2023/05/10 09:43:56;;;;;;;4.25;1.85;;;;;;;13.47;100.00;101280.44;4990288;28;96906;-30
2023/05/10 09:46:22;;;;;;;3.67;1.85;;;;;;;13.46;100.00;101281.38;4990340;28;100703;-30
2023/05/10 09:48:48;;;;;;;4.30;2.33;;;;;;;13.50;100.00;101282.06;4990195;28;101193;-29
2023/05/10 09:51:24;;;;;;;5.78;2.03;;;;;;;13.56;100.00;101292.53;4990367;28;96528;-32
2023/05/10 09:54:15;;;;;;;4.18;1.92;;;;;;;13.56;100.00;101289.81;4990289;28;96812;-30
2023/05/10 09:56:41;;;;;;;2.17;1.58;;;;;;;13.57;100.00;101294.28;4990147;28;99284;-29
2023/05/10 09:59:09;;;;;;;4.07;2.25;;;;;;;13.60;100.00;101289.50;4991964;28;98137;-29
2023/05/10 10:01:35;;;;;;;5.40;1.90;;;;;;;13.60;100.00;101294.06;4990073;28;96638;-29
2023/05/10 10:04:08;;;;;;;4.15;1.67;;;;;;;13.62;100.00;101294.00;4991276;28;97039;-29
2023/05/10 10:06:39;;;;;;;2.97;2.08;;;;;;;13.60;100.00;101294.94;4989518;28;99163;-29
2023/05/10 10:09:06;;;;;;;3.30;1.85;;;;;;;13.57;100.00;101294.28;4989677;28;100919;-31
2023/05/10 10:11:32;;;;;;;4.65;2.30;;;;;;;13.57;100.00;101302.47;4990080;28;96709;-30
2023/05/10 10:13:58;;;;;;;3.67;2.08;;;;;;;13.55;100.00;101294.38;4990357;28;96864;-29
2023/05/10 10:16:24;;;;;;;5.18;2.20;;;;;;;13.55;100.00;101299.81;4991257;28;97560;-28
2023/05/10 10:18:50;;;;;;;4.60;2.20;;;;;;;13.57;100.00;101303.31;4989923;28;100682;-29
2023/05/10 10:21:16;;;;;;;3.40;2.00;;;;;;;13.58;100.00;101301.47;4991470;28;96674;-30
2023/05/10 10:23:41;;;;;;;3.42;1.80;;;;;;;13.62;100.00;101302.16;4993657;28;96800;-31
2023/05/10 10:26:07;;;;;;;4.13;2.47;;;;;;;13.62;100.00;101302.16;4994511;28;99345;-29
2023/05/10 10:29:00;;;;;;;4.55;2.25;;;;;;;13.68;100.00;101318.97;4993247;28;100942;-29
2023/05/10 10:31:46;;;;;;;3.80;2.35;;;;;;;13.73;100.00;101313.16;4993965;28;96892;-29
2023/05/10 10:34:39;;;;;;;4.38;2.88;;;;;;;13.76;100.00;101302.97;4994608;28;96689;-29
2023/05/10 10:37:06;;;;;;;3.95;2.50;;;;;;;13.76;100.00;101302.09;4994085;28;98573;-31
2023/05/10 10:39:32;;;;;;;4.95;2.90;;;;;;;13.79;100.00;101302.75;4992843;28;101338;-30
2023/05/10 10:41:58;;;;;;;3.58;2.38;;;;;;;13.78;100.00;101300.16;4994305;28;96610;-29
2023/05/10 10:44:30;;;;;;;3.83;1.88;;;;;;;13.80;100.00;101314.53;4992827;28;96863;-29
2023/05/10 10:47:24;;;;;;;4.35;1.80;;;;;;;13.79;100.00;101319.09;4994280;28;98095;-30
2023/05/10 10:50:07;;;;;;;2.95;1.95;;;;;;;13.81;100.00;101313.53;4993342;28;100988;-29
2023/05/10 10:52:43;;;;;;;2.33;1.48;;;;;;;13.86;100.00;101308.66;4994342;28;96711;-29
2023/05/10 10:55:09;;;;;;;2.03;1.35;;;;;;;13.91;99.99;101309.22;4992944;28;96885;-29
2023/05/10 10:57:41;;;;;;;3.30;1.77;;;;;;;14.04;99.67;101322.88;4993856;28;97521;-28
2023/05/10 11:00:24;;;;;;;4.18;1.85;;;;;;;14.12;99.46;101316.91;4993916;28;99485;-29
2023/05/10 11:02:58;;;;;;;3.03;2.00;;;;;;;14.15;99.09;101314.81;4992586;28;96781;-29
2023/05/10 11:05:35;;;;;;;6.63;1.88;;;;;;;14.15;98.75;101323.00;4992633;28;96756;-28
2023/05/10 11:08:07;;;;;;;3.30;2.10;;;;;;;14.13;98.63;101322.22;4992520;28;101037;-29
2023/05/10 11:10:32;;;;;;;3.33;2.30;;;;;;;14.14;98.98;101323.97;4992459;28;101264;-31
2023/05/10 11:13:05;;;;;;;4.20;2.45;;;;;;;14.16;98.98;101323.88;4994207;28;96768;-29
2023/05/10 11:15:35;;;;;;;3.45;2.40;;;;;;;14.17;99.18;101318.31;4993019;28;96788;-29
2023/05/10 11:18:36;;;;;;;5.00;2.92;;;;;;;14.25;99.07;101323.22;4992331;28;101042;-29
2023/05/10 11:21:04;;;;;;;4.20;2.55;;;;;;;14.29;98.95;101322.03;4991682;28;97327;-30
2023/05/10 11:23:32;;;;;;;4.97;3.28;;;;;;;14.37;98.75;101318.78;4986987;28;96917;-29
2023/05/10 11:26:00;;;;;;;4.22;2.80;;;;;;;14.47;98.84;101319.91;4993868;28;96551;-31
2023/05/10 11:28:27;;;;;;;4.00;2.50;;;;;;;14.60;98.07;101323.50;4993342;28;99578;-29
2023/05/10 11:30:52;;;;;;;4.25;2.35;;;;;;;14.68;97.47;101319.38;4992078;28;101542;-29
2023/05/10 11:33:19;;;;;;;4.78;2.97;;;;;;;14.82;96.82;101322.84;4993656;28;96489;-29
2023/05/10 11:35:45;;;;;;;3.35;2.53;;;;;;;14.84;96.10;101322.75;4991138;28;96825;-29
2023/05/10 11:38:12;;;;;;;4.07;2.70;;;;;;;14.84;96.29;101326.34;4993641;28;97995;-29
2023/05/10 11:40:38;;;;;;;3.78;2.38;;;;;;;14.78;96.24;101324.06;4992079;28;98936;-29
2023/05/10 11:43:05;;;;;;;4.00;2.35;;;;;;;14.70;96.27;101326.44;4993443;28;96483;-29
2023/05/10 11:45:34;;;;;;;3.90;2.10;;;;;;;14.65;96.54;101329.50;4975454;28;96826;-29
2023/05/10 11:48:02;;;;;;;3.50;2.42;;;;;;;14.64;96.53;101329.63;4991308;28;100913;-30
2023/05/10 11:50:28;;;;;;;3.38;2.10;;;;;;;14.57;96.51;101326.47;4991852;28;101432;-29
2023/05/10 11:52:54;;;;;;;4.10;1.75;;;;;;;14.56;96.88;101332.00;4993445;28;96597;-29
2023/05/10 11:55:19;;;;;;;2.45;1.80;;;;;;;14.50;96.49;101335.16;4991796;28;96715;-29
2023/05/10 11:57:45;;;;;;;3.17;1.95;;;;;;;14.45;96.26;101338.22;4993172;28;97940;-30
2023/05/10 12:00:12;;;;;;;3.92;2.33;;;;;;;14.43;96.41;101345.63;4991646;28;100776;-29
2023/05/10 12:02:38;;;;;;;2.80;1.77;;;;;;;14.36;95.83;101338.84;4991449;28;97595;-29
2023/05/10 12:05:05;;;;;;;2.38;1.67;;;;;;;14.35;95.63;101331.63;4993722;28;96719;-30
2023/05/10 12:07:30;;;;;;;3.20;1.80;;;;;;;14.38;95.76;101339.63;4992868;28;99542;-29
2023/05/10 12:10:10;;;;;;;2.72;1.42;;;;;;;14.43;95.45;101340.16;4992442;28;98766;-29
2023/05/10 12:12:43;;;;;;;2.65;1.42;;;;;;;14.47;96.12;101344.44;4991292;28;97145;-29
2023/05/10 12:15:27;;;;;;;2.90;1.50;;;;;;;14.52;95.94;101344.97;4993307;28;96532;-29
2023/05/10 12:17:53;;;;;;;3.35;1.60;;;;;;;14.58;95.83;101344.56;4991470;28;99917;-29
2023/05/10 12:20:23;;;;;;;1.70;1.15;;;;;;;14.66;95.37;101349.50;4992524;28;99090;-29
2023/05/10 12:22:55;;;;;;;2.70;1.52;;;;;;;14.70;95.04;101355.59;4992989;28;96779;-29
2023/05/10 12:25:22;;;;;;;3.05;1.70;;;;;;;14.69;95.22;101340.22;4991501;28;96838;-30
2023/05/10 12:27:53;;;;;;;4.47;1.75;;;;;;;14.72;94.57;101345.44;4991330;28;101134;-31
2023/05/10 12:30:26;;;;;;;2.17;1.13;;;;;;;14.73;94.24;101352.63;4992601;28;99202;-29
2023/05/10 12:32:52;;;;;;;4.43;1.42;;;;;;;14.68;93.09;101352.94;4991010;28;96718;-29
2023/05/10 12:35:23;;;;;;;4.97;1.60;;;;;;;14.68;94.01;101358.41;4991379;28;96937;-29
2023/05/10 12:37:50;;;;;;;3.08;1.70;;;;;;;14.67;93.77;101353.94;4992011;28;99308;-29
2023/05/10 12:40:15;;;;;;;3.33;1.60;;;;;;;14.72;93.94;101350.91;4992512;28;97374;-29
2023/05/10 12:42:41;;;;;;;3.55;1.48;;;;;;;14.73;93.54;101360.81;4992376;28;96769;-29
2023/05/10 12:45:08;;;;;;;3.22;1.80;;;;;;;14.73;93.33;101358.09;4992003;28;96821;-29
2023/05/10 12:47:33;;;;;;;4.88;2.88;;;;;;;14.74;93.08;101359.84;4991304;28;102128;-30
2023/05/10 12:50:01;;;;;;;3.45;2.22;;;;;;;14.76;92.90;101356.03;4992337;28;99127;-29
2023/05/10 12:52:27;;;;;;;5.47;2.55;;;;;;;14.81;92.82;101358.44;4991033;28;96631;-29
2023/05/10 12:54:52;;;;;;;3.28;2.33;;;;;;;14.83;92.47;101360.06;4991461;28;96693;-29
2023/05/10 12:57:19;;;;;;;2.75;1.90;;;;;;;14.81;92.16;101350.25;4992432;28;98080;-29
2023/05/10 12:59:45;;;;;;;3.53;2.28;;;;;;;14.87;92.36;101360.69;4990796;28;100922;-30
2023/05/10 13:02:10;;;;;;;2.50;1.65;;;;;;;14.91;92.36;101364.09;4991218;28;96625;-29
2023/05/10 13:04:39;;;;;;;4.50;1.95;;;;;;;14.89;91.69;101360.59;4992517;28;96957;-29
2023/05/10 13:07:04;;;;;;;2.75;1.83;;;;;;;14.90;91.99;101365.06;4991900;28;99408;-30
2023/05/10 13:09:30;;;;;;;3.47;2.10;;;;;;;14.88;91.49;101361.59;4992123;28;97804;-29
2023/05/10 13:11:55;;;;;;;2.20;1.48;;;;;;;14.86;91.33;101361.69;4992188;28;100069;-29
2023/05/10 13:14:20;;;;;;;4.95;2.00;;;;;;;14.80;91.26;101364.84;4992179;28;96761;-29
2023/05/10 13:16:46;;;;;;;4.05;2.28;;;;;;;14.75;91.86;101370.63;4991934;28;97863;-29
2023/05/10 13:19:13;;;;;;;2.88;1.95;;;;;;;14.68;91.58;101366.59;4990830;28;100800;-29
2023/05/10 13:21:40;;;;;;;4.40;1.92;;;;;;;14.61;91.94;101366.16;4990769;28;96733;-30
2023/05/10 13:24:06;;;;;;;2.45;1.77;;;;;;;14.59;92.78;101376.31;4990120;28;96878;-30
2023/05/10 13:26:31;;;;;;;3.45;1.65;;;;;;;14.58;92.85;101379.13;4991529;28;97413;-29
2023/05/10 13:28:56;;;;;;;3.45;1.83;;;;;;;14.53;92.25;101382.16;4991589;28;108068;-29
2023/05/10 13:31:22;;;;;;;4.68;2.00;;;;;;;14.52;92.65;101383.13;4991576;28;96897;-31
2023/05/10 13:33:47;;;;;;;3.15;1.80;;;;;;;14.51;92.10;101381.38;4991906;28;96835;-29
2023/05/10 13:36:13;;;;;;;2.75;2.00;;;;;;;14.49;92.28;101386.09;4991794;28;97898;-29
2023/05/10 13:38:38;;;;;;;2.33;1.63;;;;;;;14.51;92.42;101386.81;4991567;28;99217;-29
2023/05/10 13:41:03;;;;;;;6.70;2.63;;;;;;;14.52;92.46;101379.53;4991746;28;96486;-29
2023/05/10 13:43:29;;;;;;;2.28;1.65;;;;;;;14.55;92.08;101382.09;4992299;28;96808;-29
2023/05/10 13:45:55;;;;;;;3.17;1.95;;;;;;;14.60;91.79;101380.75;4990273;28;100966;-30
2023/05/10 13:48:20;;;;;;;3.30;1.88;;;;;;;14.65;91.66;101384.03;4991586;28;97893;-29
2023/05/10 13:50:46;;;;;;;4.13;1.52;;;;;;;14.71;91.32;101382.75;4989881;28;96998;-29
2023/05/10 13:53:12;;;;;;;3.22;1.75;;;;;;;14.77;91.18;101376.84;4991472;28;96923;-28
2023/05/10 13:55:37;;;;;;;2.55;1.55;;;;;;;14.91;91.40;101380.47;4990141;28;101263;-29
2023/05/10 13:58:03;;;;;;;2.65;1.67;;;;;;;15.00;91.18;101379.81;4993028;28;97318;-30
2023/05/10 14:00:28;;;;;;;3.80;1.98;;;;;;;15.08;90.91;101377.38;4995263;28;96718;-31
2023/05/10 14:02:53;;;;;;;3.30;1.70;;;;;;;15.17;90.40;101378.59;4994106;28;112225;-30
2023/05/10 14:05:19;;;;;;;3.78;1.55;;;;;;;15.22;89.89;101381.84;4994763;28;107527;-29
2023/05/10 14:07:44;;;;;;;2.03;1.40;;;;;;;15.28;89.28;101374.09;4995301;28;97998;-29
2023/05/10 14:10:09;;;;;;;2.38;1.63;;;;;;;15.38;89.59;101381.63;4994694;28;104284;-29
2023/05/10 14:12:36;;;;;;;5.38;1.80;;;;;;;15.45;89.62;101388.38;4993630;28;96836;-29
2023/05/10 14:15:02;;;;;;;3.28;1.77;;;;;;;15.44;88.47;101387.47;4994110;28;99020;-30
2023/05/10 14:17:27;;;;;;;3.28;1.63;;;;;;;15.41;88.21;101382.25;4994501;28;99194;-28
2023/05/10 14:19:52;;;;;;;2.45;1.70;;;;;;;15.42;88.54;101380.38;4994683;28;104424;-31
2023/05/10 14:22:18;;;;;;;3.60;1.90;;;;;;;15.39;88.58;101377.88;4994926;28;96686;-29
2023/05/10 14:24:46;;;;;;;2.80;1.88;;;;;;;15.40;88.98;101385.13;4994402;28;97933;-29
2023/05/10 14:27:12;;;;;;;1.83;1.40;;;;;;;15.39;89.43;101380.63;4994442;28;99767;-29
2023/05/10 14:29:37;;;;;;;2.50;1.70;;;;;;;15.38;89.20;101378.88;4991575;28;96744;-32
2023/05/10 14:32:03;;;;;;;3.50;1.80;;;;;;;15.28;89.16;101371.38;4973287;28;96931;-29
2023/05/10 14:34:28;;;;;;;2.42;1.65;;;;;;;15.27;88.99;101380.53;4981973;28;97378;-29
2023/05/10 14:36:54;;;;;;;2.03;1.67;;;;;;;15.26;89.65;101376.06;4973519;28;98891;-29
2023/05/10 14:39:19;;;;;;;4.07;1.98;;;;;;;15.29;89.95;101383.16;4973970;28;96564;-31
2023/05/10 14:41:45;;;;;;;2.80;1.95;;;;;;;15.28;89.25;101374.09;4973996;28;106038;-30
2023/05/10 14:44:11;;;;;;;6.35;1.85;;;;;;;15.33;88.99;101367.44;4973004;28;101141;-29
2023/05/10 14:46:36;;;;;;;3.60;1.90;;;;;;;15.38;89.30;101368.84;4974430;28;97789;-29
2023/05/10 14:49:02;;;;;;;2.97;1.63;;;;;;;15.46;89.03;101373.72;4974377;28;96763;-28
2023/05/10 14:51:27;;;;;;;2.90;1.75;;;;;;;15.45;88.05;101370.13;4974654;28;96848;-29
2023/05/10 14:53:52;;;;;;;2.80;1.75;;;;;;;15.50;88.70;101376.13;4973788;28;115785;-30
2023/05/10 14:56:20;;;;;;;4.03;2.20;;;;;;;15.55;88.88;101364.84;4974277;28;112069;-29
2023/05/10 14:58:45;;;;;;;2.95;1.65;;;;;;;15.60;88.72;101369.97;4974021;28;96757;-29
2023/05/10 15:01:11;;;;;;;3.55;1.90;;;;;;;15.60;87.66;101370.84;4973693;28;112366;-28
2023/05/10 15:03:36;;;;;;;2.53;1.67;;;;;;;15.67;87.53;101363.94;4973720;28;97879;-29
2023/05/10 15:06:01;;;;;;;5.18;2.63;;;;;;;15.83;87.87;101362.84;4974356;28;97778;-29
2023/05/10 15:08:27;;;;;;;3.42;1.90;;;;;;;16.00;87.65;101367.88;4973968;28;96950;-29
2023/05/10 15:10:55;;;;;;;3.25;1.92;;;;;;;16.14;86.57;101378.63;4973960;28;96822;-29
2023/05/10 15:13:20;;;;;;;2.75;1.70;;;;;;;16.10;85.46;101376.25;4973672;28;99386;-29
2023/05/10 15:15:45;;;;;;;1.98;1.33;;;;;;;16.13;85.04;101381.47;4973973;28;97891;-29
2023/05/10 15:18:11;;;;;;;2.50;1.52;;;;;;;16.19;85.16;101369.22;4974038;28;96673;-28
2023/05/10 15:20:36;;;;;;;3.47;1.67;;;;;;;16.30;84.61;101375.59;4974163;28;96864;-29
2023/05/10 15:23:02;;;;;;;2.60;1.67;;;;;;;16.41;83.96;101373.88;4973535;28;99284;-29
2023/05/10 15:25:28;;;;;;;4.25;1.83;;;;;;;16.43;84.51;101380.09;4972255;28;101176;-29
2023/05/10 15:27:54;;;;;;;1.85;1.17;;;;;;;16.46;84.32;101383.47;4973092;28;96677;-29
2023/05/10 15:30:19;;;;;;;4.07;1.85;;;;;;;16.46;84.67;101385.34;4973600;28;96779;-29
2023/05/10 15:32:45;;;;;;;2.75;1.58;;;;;;;16.46;84.11;101379.88;4973648;28;98479;-29
2023/05/10 15:35:10;;;;;;;2.63;1.70;;;;;;;16.38;84.00;101382.34;4973479;28;99149;-29
2023/05/10 15:37:36;;;;;;;3.13;1.77;;;;;;;16.34;83.64;101387.16;4973475;28;96544;-30
2023/05/10 15:40:04;;;;;;;2.63;1.40;;;;;;;16.34;84.75;101398.09;4972309;28;96723;-29
2023/05/10 15:42:30;;;;;;;1.90;1.23;;;;;;;16.31;84.93;101390.13;4971853;28;100926;-30